WetterOnline ( http://www.wetteronline.de )

Wetter aktuell Frankfurt am Main

Aktuelles Wetter: Kleiner Feldberg (802m)

6-stündlich | Neueste Meldungen
Ortszeit Temperatur Wetter
Sa, 17.02. 1:00 -2.0° C wolkig
Fr, 16.02. 19:00 -1.0° C wolkenlos
Fr, 16.02. 13:00 0.5° C leicht bewölkt
Fr, 16.02. 7:00 -0.6° C Nebel
Fr, 16.02. 1:00 0.8° C Nebel
Do, 15.02. 19:00 -0.0° C Nebel
Do, 15.02. 13:00 -3.0° C Nebel
Do, 15.02. 7:00 -4.9° C bedeckt
Ortszeit Temperatur Wetter
Sa, 17.02. 6:00 -3.2° C Nebel
Sa, 17.02. 5:50 -3.2° C Nebel
Sa, 17.02. 5:40 -3.2° C Nebel
Sa, 17.02. 5:30 -3.1° C Nebel
Sa, 17.02. 5:20 -3.1° C Nebel
Sa, 17.02. 5:10 -3.0° C Nebel
Sa, 17.02. 5:00 -2.7° C wolkig
Sa, 17.02. 4:30 -2.7° C wolkig
Sa, 17.02. 4:00 -2.7° C bewölkt
Sa, 17.02. 3:30 -2.7° C Nebel
Sa, 17.02. 3:00 -2.6° C bedeckt
Ortszeit Relative Feuchte Sichtweite
Sa, 17.02. 1:00 90% 19 km
Fr, 16.02. 19:00 84% 40 km
Fr, 16.02. 13:00 89% 14 km
Fr, 16.02. 7:00 98% 0.3 km
Fr, 16.02. 1:00 99% 100 m
Do, 15.02. 19:00 100% <100 m
Do, 15.02. 13:00 97% 0.3 km
Do, 15.02. 7:00 75% 12 km
Ortszeit Relative Feuchte Sichtweite
Sa, 17.02. 6:00 98% 0.2 km
Sa, 17.02. 5:50 98% -
Sa, 17.02. 5:40 98% -
Sa, 17.02. 5:30 97% 100 m
Sa, 17.02. 5:20 97% -
Sa, 17.02. 5:10 98% -
Sa, 17.02. 5:00 91% 14 km
Sa, 17.02. 4:30 95% 7 km
Sa, 17.02. 4:00 98% 2.9 km
Sa, 17.02. 3:30 98% 100 m
Sa, 17.02. 3:00 94% 15 km
Ortszeit Niederschlagsmenge Niederschlagsart
Sa, 17.02. 1:00 0.0 l/m2 in 6 Std. -
Fr, 16.02. 19:00 0.0 l/m2 in 12 Std. -
Fr, 16.02. 13:00 0.0 l/m2 in 6 Std. -
Fr, 16.02. 7:00 0.4 l/m2 in 12 Std. Schnee, Regen
Fr, 16.02. 1:00 0.4 l/m2 in 6 Std. Schnee, Regen
Do, 15.02. 19:00 4 l/m2 in 12 Std. Regen
Do, 15.02. 13:00 3 l/m2 in 6 Std. Schnee, Regen
Do, 15.02. 7:00 0.0 l/m2 in 12 Std. -
Ortszeit Niederschlagsmenge Niederschlagsart
Sa, 17.02. 6:00 0.0 l/m2 in 1 Std. -
Sa, 17.02. 5:50 keine Meldung -
Sa, 17.02. 5:40 keine Meldung -
Sa, 17.02. 5:30 0.0 l/m2 in 1 Std. -
Sa, 17.02. 5:20 keine Meldung -
Sa, 17.02. 5:10 keine Meldung -
Sa, 17.02. 5:00 0.0 l/m2 in 1 Std. -
Sa, 17.02. 4:30 0.0 l/m2 in 1 Std. -
Sa, 17.02. 4:00 0.0 l/m2 in 1 Std. -
Sa, 17.02. 3:30 0.0 l/m2 in 1 Std. -
Sa, 17.02. 3:00 0.0 l/m2 in 1 Std. -
Ortszeit Stärke Spitze Richtung
km/h Bft. km/h Grad Sektor
Sa, 17.02. 1:00 14 3 22 70° O
Fr, 16.02. 19:00 7 2 22 280° W
Fr, 16.02. 13:00 9 2 22 280° W
Fr, 16.02. 7:00 9 2 28 300° NW
Fr, 16.02. 1:00 14 3 29 290° W
Do, 15.02. 19:00 11 2 43 260° W
Do, 15.02. 13:00 22 4 44 180° S
Do, 15.02. 7:00 22 4 47 140° SO
Ortszeit Stärke Spitze Richtung
km/h Bft. km/h Grad Sektor
Sa, 17.02. 6:00 24 4 37 80° O
Sa, 17.02. 5:50 24 4 - 80° O
Sa, 17.02. 5:40 25 4 - 90° O
Sa, 17.02. 5:30 25 4 36 90° O
Sa, 17.02. 5:20 25 4 - 90° O
Sa, 17.02. 5:10 25 4 - 90° O
Sa, 17.02. 5:00 24 4 37 100° O
Sa, 17.02. 4:30 25 4 40 100° O
Sa, 17.02. 4:00 24 4 33 100° O
Sa, 17.02. 3:30 22 4 32 90° O
Sa, 17.02. 3:00 20 4 30 100° O
Ortszeit Untergrenze Bedeckung Gattung
total tief tief mittel hoch
Sa, 17.02. 1:00 7200 m 8/8 0/8 - - -
Fr, 16.02. 19:00 - 0/8 0/8 - - -
Fr, 16.02. 13:00 300 m 2/8 3/8 - - -
Fr, 16.02. 7:00 <30 m 7/8 - - - -
Fr, 16.02. 1:00 <30 m 8/8 8/8 - - -
Do, 15.02. 19:00 <30 m 8/8 8/8 - - -
Do, 15.02. 13:00 <30 m 8/8 8/8 - - -
Do, 15.02. 7:00 840 m 8/8 8/8 - - -
Ortszeit Bedeckungsgrad in Achtel und Wolkenuntergrenze
Sa, 17.02. 6:00 7(<30m) 8(3600m) 8(4200m)
Sa, 17.02. 5:50 7(<30m) 8(3600m) 8(4200m)
Sa, 17.02. 5:40 7(<30m) 8(3900m)
Sa, 17.02. 5:30 7(<30m) 8(3600m)
Sa, 17.02. 5:20 7(<30m) 8(3600m)
Sa, 17.02. 5:10 5(<30m) 8(3600m)
Sa, 17.02. 5:00 1(30m) 8(3600m)
Sa, 17.02. 4:30 1(<30m) 8(3900m)
Sa, 17.02. 4:00 6(<30m) 8(4200m)
Sa, 17.02. 3:30 7(<30m) 8(4500m)
Sa, 17.02. 3:00 8(4500m) 8(4200m)
Ortszeit Stationsdruck (hPa) Tendenz (hPa in 3 Std.)
Sa, 17.02. 1:00 927 - 0,9
Fr, 16.02. 19:00 928 + 0,3
Fr, 16.02. 13:00 928 + 1,3
Fr, 16.02. 7:00 925 + 1,9
Fr, 16.02. 1:00 921 + 1,4
Do, 15.02. 19:00 919 + 1,6
Do, 15.02. 13:00 916 + 0,2
Do, 15.02. 7:00 916 0,0
Ortszeit Stationsdruck (hPa) Tendenz (hPa in 3 Std.)
Sa, 17.02. 6:00 924 - 2,1
Sa, 17.02. 5:50 924 keine Meldung
Sa, 17.02. 5:40 924 keine Meldung
Sa, 17.02. 5:30 924 - 2,1
Sa, 17.02. 5:20 924 keine Meldung
Sa, 17.02. 5:10 924 keine Meldung
Sa, 17.02. 5:00 924 - 2,1
Sa, 17.02. 4:30 925 - 2,2
Sa, 17.02. 4:00 925 - 2,1
Sa, 17.02. 3:30 925 - 2,0
Sa, 17.02. 3:00 926 - 1,8
Ortszeit Schneehöhe (cm)
Sa, 17.02. 1:00 13
Fr, 16.02. 19:00 13
Fr, 16.02. 13:00 14
Fr, 16.02. 7:00 15
Fr, 16.02. 1:00 16
Do, 15.02. 19:00 18
Do, 15.02. 13:00 19
Do, 15.02. 7:00 13
Ortszeit Schneehöhe (cm)
Sa, 17.02. 6:00 13
Sa, 17.02. 5:50 13
Sa, 17.02. 5:40 13
Sa, 17.02. 5:30 13
Sa, 17.02. 5:20 13
Sa, 17.02. 5:10 13
Sa, 17.02. 5:00 13
Sa, 17.02. 4:30 13
Sa, 17.02. 4:00 13
Sa, 17.02. 3:30 13
Sa, 17.02. 3:00 13
Link zu dieser Seite / Seite empfehlen

Das Wetter in ...